Lucas Fernandes

Olheiro-Chefe - Criciuma
20 Ago 2028
Domingo
Processo

Personalidade

Adaptabilidade (3) Ambição (16) Controvérsia (18) Lealdade (8) Pressão (18) Profissionalismo (11) Espírito Esportivo (8) Temperamento (1)

Perfil

Estilo de Treinamento Democrático
Licença Nacional B
Determinação 12
Gestão de Pessoas 6
Motivação 5
Disciplina 5
Satisfação no Trabalho
100%
Fadiga
0%
Função Olheiro-Chefe
Salário 14.4K p/s
Contrato 14.03.2030

Desempenho

Comportamento Bom
Eficácia do Treinamento
48%
Desenvolvimento do Jogador
50%
Prevenção de Lesões
55%
Implementação Tática
50%

Eventos Recentes

Participou de uma reunião de recrutamento agora
Recomendou um alvo de transferência agora
Recomendou um alvo de transferência agora
Recomendou um alvo de transferência agora
Recomendou um alvo de transferência 7d atrás
Recomendou um alvo de transferência 7d atrás
Recomendou um alvo de transferência 7d atrás
Recomendou um alvo de transferência 7d atrás

Monitorando agora

63
Jogador Clube Status Habilidade Confiança Observado Última observação Último voto
Bafodé Diakité Plymouth Argyle Ativo 155 / 148 40% 1 31.05.2028 -
Tomás Pérez Porto Ativo 124 / 133 40% 1 31.05.2028 -
Boubacar Fofana Como Ativo 115 / 115 66% 1 01.12.2027 Aprovar
Tobias Mohr Farense Ativo 117 / 117 68% 1 01.12.2027 Aprovar
Víctor Guzmán Sporting CP Ativo 113 / 104 40% 2 08.06.2027 -
Edwin Asamoah Berekum Chelsea Ativo 95 / 90 40% 1 03.06.2027 -
Chari Giwa US Bougouni Ativo 92 / 76 40% 1 03.06.2027 -
Jefry Zapata Aldosivi Ativo 118 / 118 66% 1 01.06.2027 Aprovar
Romelle Donovan Brentford Ativo 106 / 129 40% 6 30.05.2027 -
Gladson Adjei WAFA Ativo 88 / 90 40% 1 30.05.2027 -
Paulo Cardoso Sporting CP Ativo 98 / 100 40% 7 29.05.2027 -
Leo Castledine Middlesbrough Ativo 139 / 138 40% 3 29.05.2027 -
Nana Nuhu WAFA Ativo 88 / 99 40% 3 25.05.2027 -
Gabriele Bertolini Vicenza Ativo 104 / 109 40% 2 25.05.2027 -
Eduardo Fernandes Benfica Ativo 118 / 118 40% 3 23.05.2027 -
Nestory Irankunda Watford Ativo 129 / 123 40% 2 18.05.2027 -
André Miranda Porto Ativo 88 / 102 40% 2 17.05.2027 -
Leandro Martins Benfica Ativo 97 / 95 40% 1 15.05.2027 -
Ryan Oné Sheffield United Ativo 110 / 117 40% 2 14.05.2027 -
Asanele Bonani Chippa United Ativo 98 / 90 40% 1 14.05.2027 -
Calum Agius Crewe Alexandra Ativo 110 / 95 40% 3 13.05.2027 -
Paulo Iago Sporting CP Ativo 78 / 95 40% 5 13.05.2027 -
Rafael Camacho Sporting CP Ativo 110 / 108 40% 3 12.05.2027 -
Francisco Fernandes Porto Ativo 101 / 90 40% 3 11.05.2027 -
Daniel Awuni Aduana Stars Ativo 81 / 92 40% 2 07.05.2027 -
Miguel Figueiredo Benfica Ativo 96 / 116 40% 3 06.05.2027 -
Oscar Schwartau Norwich City Ativo 113 / 127 40% 1 04.05.2027 -
Gomolemo Kekana Maritzburg United Ativo 100 / 116 40% 2 03.05.2027 -
Othmane Maamma Watford Ativo 140 / 120 40% 1 28.04.2027 -
Tiago Freitas Benfica Ativo 96 / 122 40% 1 23.04.2027 -
Moncef Zekri Sporting CP Ativo 86 / 105 40% 2 21.04.2027 -
Monty Batlhabane Polokwane City Ativo 89 / 106 40% 1 21.04.2027 -
Ethan Williams Peterborough United Ativo 110 / 119 40% 2 20.04.2027 -
Jan Bürger Northampton Town Ativo 108 / 115 40% 1 20.04.2027 -
Araphat Mohammed Ashanti Gold Ativo 110 / 102 40% 2 18.04.2027 -
Mateus Mané Burnley Ativo 137 / 144 40% 2 17.04.2027 -
Zack Nelson Ternana Ativo 114 / 98 40% 2 13.04.2027 -
João Abreu Porto Ativo 84 / 108 40% 1 13.04.2027 -
Cezary Miszta Rio Ave Ativo 142 / 137 40% 1 16.12.2026 -
Juan Diego Castillo Vitoria Guimaraes Ativo 115 / 112 40% 1 16.12.2026 -
Sampson Dweh Mallorca Ativo 133 / 134 66% 1 01.12.2026 Aprovar
Julian Herrera Cortulua Ativo 119 / 119 66% 1 01.12.2026 Aprovar
Marko Brkić NK Krka Ativo 101 / 101 40% 1 23.11.2026 -
Rocco Vata Watford Ativo 130 / 130 40% 1 21.11.2026 -
Markus Jensen Nacional Ativo 111 / 117 40% 1 20.11.2026 -
Jocelin Ta Bi Sunderland Ativo 101 / 108 40% 1 13.11.2026 -
Youssoufa Moukoko FC Copenhagen Ativo 132 / 136 40% 1 09.11.2026 -
Ezekiel Kwame Alladoh Philadelphia Union Ativo 119 / 119 40% 2 05.11.2026 -
William Gomes Porto Ativo 122 / 148 40% 1 19.10.2026 -
Ilyas Ansah Hull City Ativo 119 / 124 40% 1 19.10.2026 -
Mathias De Amorim Famalicao Ativo 117 / 129 40% 2 18.10.2026 -
Gianluca Prestianni Benfica Ativo 135 / 141 40% 1 17.10.2026 -
Olívio Tomé Benfica Ativo 113 / 108 40% 3 13.10.2026 -
Tamás Szűcs Famalicao Ativo 123 / 134 40% 1 08.10.2026 -
Eddy Doué Estrela da Amadora Ativo 107 / 106 40% 1 07.10.2026 -
Jan Virgili Club Brugge Ativo 114 / 131 40% 1 07.10.2026 -
Rafael Lobato Rio Ave Ativo 99 / 110 40% 2 15.09.2026 -
Victor Froholdt Porto Ativo 153 / 162 40% 1 09.09.2026 -
Amin Boudri Los Angeles Football Club Ativo 112 / 129 40% 1 09.09.2026 -
José Silva Gil Vicente Ativo 115 / 116 40% 2 08.09.2026 -
Dario Špikić Rio Ave Ativo 108 / 121 40% 1 05.08.2026 -
Leonardo Realpe Famalicao Ativo 138 / 121 40% 1 02.08.2026 -
Miguel Nóbrega Vitoria Guimaraes Ativo 103 / 109 40% 1 02.08.2026 -